Alcova, Wyoming
Current Conditions -  °F | °C
As of 6:53 AM on Thursday 18 Dec 2014 (Local Time) from KCPR Reporting Station
Clear Clear  
Wind Chill: -13°   Ceiling: Unl
Heat Index: -7°   Visibility: 10mi
Dew Point: -11°   Wind: 12mph
Humidity: 74%   Direction: 210°SSW
Pressure: 30"   Gusts: NA
Location:  42.55°N, 106.72°W
Report Text: KCPR 181353Z 21010KT 10SM CLR M07/M11 A3000 RMK AO2 SLP207 T10671106
Loading
Personal Weather Stations






























Interactive Weather Map New forecast layout! Learn more

10-Day Weather Forecast

Advertisements
Track Severe Weather on mobile